sensor_id;sensor_type;location;lat;lon;timestamp;temperature;humidity
58517;DHT22;44308;50.810;0.284;2023-05-15T00:00:22;13.70;99.90
58517;DHT22;44308;50.810;0.284;2023-05-15T00:02:47;13.70;99.90
58517;DHT22;44308;50.810;0.284;2023-05-15T00:05:16;13.70;99.90
58517;DHT22;44308;50.810;0.284;2023-05-15T00:07:41;13.70;99.90
58517;DHT22;44308;50.810;0.284;2023-05-15T00:10:08;13.70;99.90
58517;DHT22;44308;50.810;0.284;2023-05-15T00:12:33;13.70;99.90
58517;DHT22;44308;50.810;0.284;2023-05-15T00:14:59;13.70;99.90
58517;DHT22;44308;50.810;0.284;2023-05-15T00:17:25;13.70;99.90
58517;DHT22;44308;50.810;0.284;2023-05-15T00:19:52;13.70;99.90
58517;DHT22;44308;50.810;0.284;2023-05-15T00:22:22;13.70;99.90
58517;DHT22;44308;50.810;0.284;2023-05-15T00:24:47;13.70;99.90
58517;DHT22;44308;50.810;0.284;2023-05-15T00:27:13;13.70;99.90
58517;DHT22;44308;50.810;0.284;2023-05-15T00:29:39;13.70;99.90
58517;DHT22;44308;50.810;0.284;2023-05-15T00:32:05;13.70;99.90
58517;DHT22;44308;50.810;0.284;2023-05-15T00:34:30;13.70;99.90
58517;DHT22;44308;50.810;0.284;2023-05-15T00:36:56;13.60;99.90
58517;DHT22;44308;50.810;0.284;2023-05-15T00:39:22;13.50;99.90
58517;DHT22;44308;50.810;0.284;2023-05-15T00:41:48;13.50;99.90
58517;DHT22;44308;50.810;0.284;2023-05-15T00:44:16;13.50;99.90
58517;DHT22;44308;50.810;0.284;2023-05-15T00:46:44;13.50;99.90
58517;DHT22;44308;50.810;0.284;2023-05-15T00:49:11;13.50;99.90
58517;DHT22;44308;50.810;0.284;2023-05-15T00:51:40;13.50;99.90
58517;DHT22;44308;50.810;0.284;2023-05-15T00:54:09;13.50;99.90
58517;DHT22;44308;50.810;0.284;2023-05-15T00:56:36;13.50;99.90
58517;DHT22;44308;50.810;0.284;2023-05-15T00:59:03;13.50;99.90
58517;DHT22;44308;50.810;0.284;2023-05-15T01:01:29;13.50;99.90
58517;DHT22;44308;50.810;0.284;2023-05-15T01:04:01;13.60;99.90
58517;DHT22;44308;50.810;0.284;2023-05-15T01:06:28;13.60;99.90
58517;DHT22;44308;50.810;0.284;2023-05-15T01:08:56;13.60;99.90
58517;DHT22;44308;50.810;0.284;2023-05-15T01:11:24;13.60;99.90
58517;DHT22;44308;50.810;0.284;2023-05-15T01:13:51;13.60;99.90
58517;DHT22;44308;50.810;0.284;2023-05-15T01:16:17;13.60;99.90
58517;DHT22;44308;50.810;0.284;2023-05-15T01:18:49;13.60;99.90
58517;DHT22;44308;50.810;0.284;2023-05-15T01:27:25;13.60;99.90
58517;DHT22;44308;50.810;0.284;2023-05-15T01:30:09;13.60;99.90
58517;DHT22;44308;50.810;0.284;2023-05-15T01:35:22;13.60;99.90
58517;DHT22;44308;50.810;0.284;2023-05-15T01:37:58;13.60;99.90
58517;DHT22;44308;50.810;0.284;2023-05-15T01:40:27;13.70;99.90
58517;DHT22;44308;50.810;0.284;2023-05-15T01:42:55;13.60;99.90
58517;DHT22;44308;50.810;0.284;2023-05-15T01:45:23;13.60;99.90
58517;DHT22;44308;50.810;0.284;2023-05-15T01:47:52;13.60;99.90
58517;DHT22;44308;50.810;0.284;2023-05-15T01:50:20;13.60;99.90
58517;DHT22;44308;50.810;0.284;2023-05-15T01:52:49;13.60;99.90
58517;DHT22;44308;50.810;0.284;2023-05-15T01:55:17;13.60;99.90
58517;DHT22;44308;50.810;0.284;2023-05-15T01:57:46;13.60;99.90
58517;DHT22;44308;50.810;0.284;2023-05-15T02:00:13;13.60;99.90
58517;DHT22;44308;50.810;0.284;2023-05-15T02:02:40;13.60;99.90
58517;DHT22;44308;50.810;0.284;2023-05-15T02:05:06;13.60;99.90
58517;DHT22;44308;50.810;0.284;2023-05-15T02:07:32;13.60;99.90
58517;DHT22;44308;50.810;0.284;2023-05-15T02:09:59;13.60;99.90
58517;DHT22;44308;50.810;0.284;2023-05-15T02:12:26;13.60;99.90
58517;DHT22;44308;50.810;0.284;2023-05-15T02:14:54;13.50;99.90
58517;DHT22;44308;50.810;0.284;2023-05-15T02:17:20;13.50;99.90
58517;DHT22;44308;50.810;0.284;2023-05-15T02:19:47;13.50;99.90
58517;DHT22;44308;50.810;0.284;2023-05-15T02:22:12;13.50;99.90
58517;DHT22;44308;50.810;0.284;2023-05-15T02:24:38;13.50;99.90
58517;DHT22;44308;50.810;0.284;2023-05-15T02:27:23;13.50;99.90
58517;DHT22;44308;50.810;0.284;2023-05-15T02:32:33;13.50;99.90
58517;DHT22;44308;50.810;0.284;2023-05-15T02:37:50;13.40;99.90
58517;DHT22;44308;50.810;0.284;2023-05-15T02:40:18;13.40;99.90
58517;DHT22;44308;50.810;0.284;2023-05-15T02:42:45;13.40;99.90
58517;DHT22;44308;50.810;0.284;2023-05-15T02:45:11;13.40;99.90
58517;DHT22;44308;50.810;0.284;2023-05-15T02:47:39;13.40;99.90
58517;DHT22;44308;50.810;0.284;2023-05-15T02:50:05;13.40;99.90
58517;DHT22;44308;50.810;0.284;2023-05-15T02:52:33;13.40;99.90
58517;DHT22;44308;50.810;0.284;2023-05-15T02:54:59;13.40;99.90
58517;DHT22;44308;50.810;0.284;2023-05-15T02:57:25;13.40;99.90
58517;DHT22;44308;50.810;0.284;2023-05-15T02:59:54;13.40;99.90
58517;DHT22;44308;50.810;0.284;2023-05-15T03:02:20;13.40;99.90
58517;DHT22;44308;50.810;0.284;2023-05-15T03:04:46;13.30;99.90
58517;DHT22;44308;50.810;0.284;2023-05-15T03:07:11;13.30;99.90
58517;DHT22;44308;50.810;0.284;2023-05-15T03:09:39;13.30;99.90
58517;DHT22;44308;50.810;0.284;2023-05-15T03:12:06;13.30;99.90
58517;DHT22;44308;50.810;0.284;2023-05-15T03:14:32;13.30;99.90
58517;DHT22;44308;50.810;0.284;2023-05-15T03:16:57;13.30;99.90
58517;DHT22;44308;50.810;0.284;2023-05-15T03:19:23;13.30;99.90
58517;DHT22;44308;50.810;0.284;2023-05-15T03:21:49;13.30;99.90
58517;DHT22;44308;50.810;0.284;2023-05-15T03:24:14;13.30;99.90
58517;DHT22;44308;50.810;0.284;2023-05-15T03:26:40;13.30;99.90
58517;DHT22;44308;50.810;0.284;2023-05-15T03:29:07;13.30;99.90
58517;DHT22;44308;50.810;0.284;2023-05-15T03:31:33;13.30;99.90
58517;DHT22;44308;50.810;0.284;2023-05-15T03:33:59;13.30;99.90
58517;DHT22;44308;50.810;0.284;2023-05-15T03:36:24;13.30;99.90
58517;DHT22;44308;50.810;0.284;2023-05-15T03:38:50;13.20;99.90
58517;DHT22;44308;50.810;0.284;2023-05-15T03:41:16;13.20;99.90
58517;DHT22;44308;50.810;0.284;2023-05-15T03:43:41;13.10;99.90
58517;DHT22;44308;50.810;0.284;2023-05-15T03:46:07;13.10;99.90
58517;DHT22;44308;50.810;0.284;2023-05-15T03:48:33;13.10;99.90
58517;DHT22;44308;50.810;0.284;2023-05-15T03:50:58;13.00;99.90
58517;DHT22;44308;50.810;0.284;2023-05-15T03:53:24;13.10;99.90
58517;DHT22;44308;50.810;0.284;2023-05-15T03:55:50;13.00;99.90
58517;DHT22;44308;50.810;0.284;2023-05-15T03:58:15;13.00;99.90
58517;DHT22;44308;50.810;0.284;2023-05-15T04:00:41;13.00;99.90
58517;DHT22;44308;50.810;0.284;2023-05-15T04:03:07;13.00;99.90
58517;DHT22;44308;50.810;0.284;2023-05-15T04:05:33;13.00;99.90
58517;DHT22;44308;50.810;0.284;2023-05-15T04:07:58;13.00;99.90
58517;DHT22;44308;50.810;0.284;2023-05-15T04:10:24;13.00;99.90
58517;DHT22;44308;50.810;0.284;2023-05-15T04:12:49;13.00;99.90
58517;DHT22;44308;50.810;0.284;2023-05-15T04:15:20;13.00;99.90
58517;DHT22;44308;50.810;0.284;2023-05-15T04:17:48;13.10;99.90
58517;DHT22;44308;50.810;0.284;2023-05-15T04:20:16;13.10;99.90
58517;DHT22;44308;50.810;0.284;2023-05-15T04:22:43;13.10;99.90
58517;DHT22;44308;50.810;0.284;2023-05-15T04:25:09;13.10;99.90
58517;DHT22;44308;50.810;0.284;2023-05-15T04:27:36;13.10;99.90
58517;DHT22;44308;50.810;0.284;2023-05-15T04:30:05;13.10;99.90
58517;DHT22;44308;50.810;0.284;2023-05-15T04:32:48;13.10;99.90
58517;DHT22;44308;50.810;0.284;2023-05-15T04:35:14;13.20;99.90
58517;DHT22;44308;50.810;0.284;2023-05-15T04:37:41;13.20;99.90
58517;DHT22;44308;50.810;0.284;2023-05-15T04:40:07;13.20;99.90
58517;DHT22;44308;50.810;0.284;2023-05-15T04:42:34;13.20;99.90
58517;DHT22;44308;50.810;0.284;2023-05-15T04:45:01;13.20;99.90
58517;DHT22;44308;50.810;0.284;2023-05-15T04:47:27;13.30;99.90
58517;DHT22;44308;50.810;0.284;2023-05-15T04:49:53;13.20;99.90
58517;DHT22;44308;50.810;0.284;2023-05-15T04:52:21;13.30;99.90
58517;DHT22;44308;50.810;0.284;2023-05-15T04:54:47;13.30;99.90
58517;DHT22;44308;50.810;0.284;2023-05-15T04:57:15;13.30;99.90
58517;DHT22;44308;50.810;0.284;2023-05-15T04:59:41;13.30;99.90
58517;DHT22;44308;50.810;0.284;2023-05-15T05:02:08;13.30;99.90
58517;DHT22;44308;50.810;0.284;2023-05-15T05:04:34;13.40;99.90
58517;DHT22;44308;50.810;0.284;2023-05-15T05:07:00;13.40;99.90
58517;DHT22;44308;50.810;0.284;2023-05-15T05:09:28;13.50;99.90
58517;DHT22;44308;50.810;0.284;2023-05-15T05:11:54;13.50;99.90
58517;DHT22;44308;50.810;0.284;2023-05-15T05:14:20;13.50;99.90
58517;DHT22;44308;50.810;0.284;2023-05-15T05:16:45;13.60;99.90
58517;DHT22;44308;50.810;0.284;2023-05-15T05:19:11;13.60;99.90
58517;DHT22;44308;50.810;0.284;2023-05-15T05:21:37;13.70;99.90
58517;DHT22;44308;50.810;0.284;2023-05-15T05:24:02;13.70;99.90
58517;DHT22;44308;50.810;0.284;2023-05-15T05:26:28;13.80;99.90
58517;DHT22;44308;50.810;0.284;2023-05-15T05:28:54;13.80;99.90
58517;DHT22;44308;50.810;0.284;2023-05-15T05:31:19;13.80;99.90
58517;DHT22;44308;50.810;0.284;2023-05-15T05:33:45;13.80;99.90
58517;DHT22;44308;50.810;0.284;2023-05-15T05:36:11;13.90;99.90
58517;DHT22;44308;50.810;0.284;2023-05-15T05:38:37;13.90;99.90
58517;DHT22;44308;50.810;0.284;2023-05-15T05:41:02;14.00;99.90
58517;DHT22;44308;50.810;0.284;2023-05-15T05:43:29;14.00;99.90
58517;DHT22;44308;50.810;0.284;2023-05-15T05:45:55;14.00;99.90
58517;DHT22;44308;50.810;0.284;2023-05-15T05:48:21;14.10;99.90
58517;DHT22;44308;50.810;0.284;2023-05-15T05:50:47;14.10;99.90
58517;DHT22;44308;50.810;0.284;2023-05-15T05:53:12;14.00;99.90
58517;DHT22;44308;50.810;0.284;2023-05-15T05:55:38;14.00;99.90
58517;DHT22;44308;50.810;0.284;2023-05-15T05:58:04;14.10;99.90
58517;DHT22;44308;50.810;0.284;2023-05-15T06:00:30;14.00;99.90
58517;DHT22;44308;50.810;0.284;2023-05-15T06:02:57;14.00;99.90
58517;DHT22;44308;50.810;0.284;2023-05-15T06:05:27;14.00;99.90
58517;DHT22;44308;50.810;0.284;2023-05-15T06:07:53;14.00;99.90
58517;DHT22;44308;50.810;0.284;2023-05-15T06:10:20;14.00;99.90
58517;DHT22;44308;50.810;0.284;2023-05-15T06:12:46;14.00;99.90
58517;DHT22;44308;50.810;0.284;2023-05-15T06:15:12;14.20;99.90
58517;DHT22;44308;50.810;0.284;2023-05-15T06:17:38;14.20;99.90
58517;DHT22;44308;50.810;0.284;2023-05-15T06:20:04;14.30;99.90
58517;DHT22;44308;50.810;0.284;2023-05-15T06:22:32;14.30;99.90
58517;DHT22;44308;50.810;0.284;2023-05-15T06:24:58;14.50;99.90
58517;DHT22;44308;50.810;0.284;2023-05-15T06:27:24;14.40;99.90
58517;DHT22;44308;50.810;0.284;2023-05-15T06:29:51;14.40;99.90
58517;DHT22;44308;50.810;0.284;2023-05-15T06:32:17;14.40;99.90
58517;DHT22;44308;50.810;0.284;2023-05-15T06:34:42;14.40;99.90
58517;DHT22;44308;50.810;0.284;2023-05-15T06:37:10;14.40;99.90
58517;DHT22;44308;50.810;0.284;2023-05-15T06:39:35;14.40;99.90
58517;DHT22;44308;50.810;0.284;2023-05-15T06:42:01;14.30;99.90
58517;DHT22;44308;50.810;0.284;2023-05-15T06:44:29;14.30;99.90
58517;DHT22;44308;50.810;0.284;2023-05-15T06:46:55;14.40;99.90
58517;DHT22;44308;50.810;0.284;2023-05-15T06:49:21;14.40;99.90
58517;DHT22;44308;50.810;0.284;2023-05-15T06:51:46;14.50;99.90
58517;DHT22;44308;50.810;0.284;2023-05-15T06:54:13;14.30;99.90
58517;DHT22;44308;50.810;0.284;2023-05-15T06:56:38;14.20;99.90
58517;DHT22;44308;50.810;0.284;2023-05-15T06:59:04;14.10;99.90
58517;DHT22;44308;50.810;0.284;2023-05-15T07:01:30;14.10;99.90
58517;DHT22;44308;50.810;0.284;2023-05-15T07:03:56;14.00;99.90
58517;DHT22;44308;50.810;0.284;2023-05-15T07:06:22;14.00;99.90
58517;DHT22;44308;50.810;0.284;2023-05-15T07:08:48;14.00;99.90
58517;DHT22;44308;50.810;0.284;2023-05-15T07:11:14;14.10;99.90
58517;DHT22;44308;50.810;0.284;2023-05-15T07:13:40;14.10;99.90
58517;DHT22;44308;50.810;0.284;2023-05-15T07:16:05;14.00;99.90
58517;DHT22;44308;50.810;0.284;2023-05-15T07:18:31;14.00;99.90
58517;DHT22;44308;50.810;0.284;2023-05-15T07:20:57;13.90;99.90
58517;DHT22;44308;50.810;0.284;2023-05-15T07:23:22;14.00;99.90
58517;DHT22;44308;50.810;0.284;2023-05-15T07:25:48;14.00;99.90
58517;DHT22;44308;50.810;0.284;2023-05-15T07:28:15;13.90;99.90
58517;DHT22;44308;50.810;0.284;2023-05-15T07:30:40;13.90;99.90
58517;DHT22;44308;50.810;0.284;2023-05-15T07:33:06;13.70;99.90
58517;DHT22;44308;50.810;0.284;2023-05-15T07:35:32;13.60;99.90
58517;DHT22;44308;50.810;0.284;2023-05-15T07:37:57;13.70;99.90
58517;DHT22;44308;50.810;0.284;2023-05-15T07:40:23;13.50;99.90
58517;DHT22;44308;50.810;0.284;2023-05-15T07:42:49;13.40;99.90
58517;DHT22;44308;50.810;0.284;2023-05-15T07:45:14;13.40;99.90
58517;DHT22;44308;50.810;0.284;2023-05-15T07:47:47;13.40;99.90
58517;DHT22;44308;50.810;0.284;2023-05-15T07:50:14;13.30;99.90
58517;DHT22;44308;50.810;0.284;2023-05-15T07:52:40;13.30;99.90
58517;DHT22;44308;50.810;0.284;2023-05-15T07:55:07;13.40;99.90
58517;DHT22;44308;50.810;0.284;2023-05-15T07:57:33;13.30;99.90
58517;DHT22;44308;50.810;0.284;2023-05-15T07:59:59;13.30;99.90
58517;DHT22;44308;50.810;0.284;2023-05-15T08:02:26;13.30;99.90
58517;DHT22;44308;50.810;0.284;2023-05-15T08:04:52;13.40;99.90
58517;DHT22;44308;50.810;0.284;2023-05-15T08:07:18;13.40;99.90
58517;DHT22;44308;50.810;0.284;2023-05-15T08:09:43;13.50;99.90
58517;DHT22;44308;50.810;0.284;2023-05-15T08:12:20;13.50;99.90
58517;DHT22;44308;50.810;0.284;2023-05-15T08:14:50;13.40;99.90
58517;DHT22;44308;50.810;0.284;2023-05-15T08:17:17;13.40;99.90
58517;DHT22;44308;50.810;0.284;2023-05-15T08:19:44;13.50;99.90
58517;DHT22;44308;50.810;0.284;2023-05-15T08:22:10;13.60;99.90
58517;DHT22;44308;50.810;0.284;2023-05-15T08:24:37;13.50;99.90
58517;DHT22;44308;50.810;0.284;2023-05-15T08:27:04;13.70;99.90
58517;DHT22;44308;50.810;0.284;2023-05-15T08:29:31;13.70;99.90
58517;DHT22;44308;50.810;0.284;2023-05-15T08:31:56;13.80;99.90
58517;DHT22;44308;50.810;0.284;2023-05-15T08:34:22;13.90;99.90
58517;DHT22;44308;50.810;0.284;2023-05-15T08:36:48;14.00;99.90
58517;DHT22;44308;50.810;0.284;2023-05-15T08:39:14;14.00;99.90
58517;DHT22;44308;50.810;0.284;2023-05-15T08:44:10;14.00;99.90
58517;DHT22;44308;50.810;0.284;2023-05-15T08:46:37;14.00;99.90
58517;DHT22;44308;50.810;0.284;2023-05-15T08:49:10;14.00;99.90
58517;DHT22;44308;50.810;0.284;2023-05-15T08:51:38;14.10;99.90
58517;DHT22;44308;50.810;0.284;2023-05-15T08:54:05;14.30;99.90
58517;DHT22;44308;50.810;0.284;2023-05-15T08:56:30;14.40;99.90
58517;DHT22;44308;50.810;0.284;2023-05-15T08:58:56;14.60;99.90
58517;DHT22;44308;50.810;0.284;2023-05-15T09:01:25;14.60;99.90
58517;DHT22;44308;50.810;0.284;2023-05-15T09:03:51;14.70;99.90
58517;DHT22;44308;50.810;0.284;2023-05-15T09:06:17;14.80;99.90
58517;DHT22;44308;50.810;0.284;2023-05-15T09:08:43;15.30;99.90
58517;DHT22;44308;50.810;0.284;2023-05-15T09:11:11;15.90;99.90
58517;DHT22;44308;50.810;0.284;2023-05-15T09:13:37;16.80;99.90
58517;DHT22;44308;50.810;0.284;2023-05-15T09:16:03;17.30;99.90
58517;DHT22;44308;50.810;0.284;2023-05-15T09:18:47;17.40;99.90
58517;DHT22;44308;50.810;0.284;2023-05-15T09:21:28;17.70;99.90
58517;DHT22;44308;50.810;0.284;2023-05-15T09:23:56;17.70;99.90
58517;DHT22;44308;50.810;0.284;2023-05-15T09:26:39;18.40;99.90
58517;DHT22;44308;50.810;0.284;2023-05-15T09:29:05;19.50;99.90
58517;DHT22;44308;50.810;0.284;2023-05-15T09:31:31;20.00;99.90
58517;DHT22;44308;50.810;0.284;2023-05-15T09:34:00;19.90;99.90
58517;DHT22;44308;50.810;0.284;2023-05-15T09:36:27;20.30;99.90
58517;DHT22;44308;50.810;0.284;2023-05-15T09:38:58;20.60;99.90
58517;DHT22;44308;50.810;0.284;2023-05-15T09:41:25;21.20;99.90
58517;DHT22;44308;50.810;0.284;2023-05-15T09:43:51;21.80;99.90
58517;DHT22;44308;50.810;0.284;2023-05-15T09:46:17;21.70;99.90
58517;DHT22;44308;50.810;0.284;2023-05-15T09:48:43;21.80;99.90
58517;DHT22;44308;50.810;0.284;2023-05-15T09:51:16;21.70;99.90
58517;DHT22;44308;50.810;0.284;2023-05-15T09:53:48;22.20;99.90
58517;DHT22;44308;50.810;0.284;2023-05-15T09:56:15;21.60;99.90
58517;DHT22;44308;50.810;0.284;2023-05-15T09:58:58;21.00;99.90
58517;DHT22;44308;50.810;0.284;2023-05-15T10:01:24;20.50;99.90
58517;DHT22;44308;50.810;0.284;2023-05-15T10:04:05;20.30;99.90
58517;DHT22;44308;50.810;0.284;2023-05-15T10:06:34;20.50;99.90
58517;DHT22;44308;50.810;0.284;2023-05-15T10:09:02;20.30;99.90
58517;DHT22;44308;50.810;0.284;2023-05-15T10:11:29;20.50;99.90
58517;DHT22;44308;50.810;0.284;2023-05-15T10:13:57;20.00;99.90
58517;DHT22;44308;50.810;0.284;2023-05-15T10:16:24;19.90;99.90
58517;DHT22;44308;50.810;0.284;2023-05-15T10:18:51;20.20;99.90
58517;DHT22;44308;50.810;0.284;2023-05-15T10:21:19;20.60;99.90
58517;DHT22;44308;50.810;0.284;2023-05-15T10:23:45;20.40;99.90
58517;DHT22;44308;50.810;0.284;2023-05-15T10:26:20;20.70;99.90
58517;DHT22;44308;50.810;0.284;2023-05-15T10:28:48;20.60;99.90
58517;DHT22;44308;50.810;0.284;2023-05-15T10:31:15;20.80;99.90
58517;DHT22;44308;50.810;0.284;2023-05-15T10:33:42;20.80;99.90
58517;DHT22;44308;50.810;0.284;2023-05-15T10:36:08;20.90;99.90
58517;DHT22;44308;50.810;0.284;2023-05-15T10:38:35;21.10;99.90
58517;DHT22;44308;50.810;0.284;2023-05-15T10:41:01;21.20;99.90
58517;DHT22;44308;50.810;0.284;2023-05-15T10:43:29;21.40;99.90
58517;DHT22;44308;50.810;0.284;2023-05-15T10:45:55;21.60;99.90
58517;DHT22;44308;50.810;0.284;2023-05-15T10:48:22;20.80;99.90
58517;DHT22;44308;50.810;0.284;2023-05-15T10:50:48;21.10;99.90
58517;DHT22;44308;50.810;0.284;2023-05-15T10:53:14;21.10;99.90
58517;DHT22;44308;50.810;0.284;2023-05-15T10:55:40;21.40;99.90
58517;DHT22;44308;50.810;0.284;2023-05-15T10:58:10;21.70;99.90
58517;DHT22;44308;50.810;0.284;2023-05-15T11:00:45;22.00;99.90
58517;DHT22;44308;50.810;0.284;2023-05-15T11:03:14;21.70;99.90
58517;DHT22;44308;50.810;0.284;2023-05-15T11:06:10;21.50;99.90
58517;DHT22;44308;50.810;0.284;2023-05-15T11:08:39;21.40;99.90
58517;DHT22;44308;50.810;0.284;2023-05-15T11:11:06;21.60;99.90
58517;DHT22;44308;50.810;0.284;2023-05-15T11:14:24;21.10;99.90
58517;DHT22;44308;50.810;0.284;2023-05-15T11:24:58;21.50;99.90
58517;DHT22;44308;50.810;0.284;2023-05-15T11:27:37;21.60;99.90
58517;DHT22;44308;50.810;0.284;2023-05-15T11:30:04;21.00;99.90
58517;DHT22;44308;50.810;0.284;2023-05-15T11:33:15;21.00;99.90
58517;DHT22;44308;50.810;0.284;2023-05-15T11:37:53;20.80;99.90
58517;DHT22;44308;50.810;0.284;2023-05-15T11:40:26;20.60;99.90
58517;DHT22;44308;50.810;0.284;2023-05-15T11:43:21;20.70;99.90
58517;DHT22;44308;50.810;0.284;2023-05-15T11:45:51;20.60;99.90
58517;DHT22;44308;50.810;0.284;2023-05-15T11:48:18;20.60;99.90
58517;DHT22;44308;50.810;0.284;2023-05-15T11:50:44;20.20;99.90
58517;DHT22;44308;50.810;0.284;2023-05-15T11:53:11;20.40;99.90
58517;DHT22;44308;50.810;0.284;2023-05-15T11:55:39;20.80;99.90
58517;DHT22;44308;50.810;0.284;2023-05-15T11:58:11;21.30;99.90
58517;DHT22;44308;50.810;0.284;2023-05-15T12:00:38;21.30;99.90
58517;DHT22;44308;50.810;0.284;2023-05-15T12:03:04;20.90;99.90
58517;DHT22;44308;50.810;0.284;2023-05-15T12:05:30;21.10;99.90
58517;DHT22;44308;50.810;0.284;2023-05-15T12:07:56;21.10;99.90
58517;DHT22;44308;50.810;0.284;2023-05-15T12:10:22;21.10;99.90
58517;DHT22;44308;50.810;0.284;2023-05-15T12:12:48;21.20;99.90
58517;DHT22;44308;50.810;0.284;2023-05-15T12:15:15;20.50;99.90
58517;DHT22;44308;50.810;0.284;2023-05-15T12:17:43;19.90;99.90
58517;DHT22;44308;50.810;0.284;2023-05-15T12:20:18;20.60;99.90
58517;DHT22;44308;50.810;0.284;2023-05-15T12:22:44;21.20;99.90
58517;DHT22;44308;50.810;0.284;2023-05-15T12:25:11;21.10;99.90
58517;DHT22;44308;50.810;0.284;2023-05-15T12:27:40;21.10;99.90
58517;DHT22;44308;50.810;0.284;2023-05-15T12:30:06;21.30;99.90
58517;DHT22;44308;50.810;0.284;2023-05-15T12:32:34;21.40;99.90
58517;DHT22;44308;50.810;0.284;2023-05-15T12:35:01;21.40;99.90
58517;DHT22;44308;50.810;0.284;2023-05-15T12:37:30;21.30;99.90
58517;DHT22;44308;50.810;0.284;2023-05-15T12:39:59;21.00;99.90
58517;DHT22;44308;50.810;0.284;2023-05-15T12:42:25;21.30;99.90
58517;DHT22;44308;50.810;0.284;2023-05-15T12:44:55;21.00;99.90
58517;DHT22;44308;50.810;0.284;2023-05-15T12:47:26;20.10;99.90
58517;DHT22;44308;50.810;0.284;2023-05-15T12:49:55;20.60;99.90
58517;DHT22;44308;50.810;0.284;2023-05-15T12:52:22;21.10;99.90
58517;DHT22;44308;50.810;0.284;2023-05-15T12:54:47;20.70;99.90
58517;DHT22;44308;50.810;0.284;2023-05-15T12:57:13;20.40;99.90
58517;DHT22;44308;50.810;0.284;2023-05-15T12:59:40;20.60;99.90
58517;DHT22;44308;50.810;0.284;2023-05-15T13:02:10;20.90;99.90
58517;DHT22;44308;50.810;0.284;2023-05-15T13:04:36;20.90;99.90
58517;DHT22;44308;50.810;0.284;2023-05-15T13:07:02;20.90;99.90
58517;DHT22;44308;50.810;0.284;2023-05-15T13:09:28;20.70;99.90
58517;DHT22;44308;50.810;0.284;2023-05-15T13:11:55;21.00;99.90
58517;DHT22;44308;50.810;0.284;2023-05-15T13:14:22;20.60;99.90
58517;DHT22;44308;50.810;0.284;2023-05-15T13:16:51;20.70;99.90
58517;DHT22;44308;50.810;0.284;2023-05-15T13:19:18;20.60;99.90
58517;DHT22;44308;50.810;0.284;2023-05-15T13:21:43;20.60;99.90
58517;DHT22;44308;50.810;0.284;2023-05-15T13:24:13;19.90;99.90
58517;DHT22;44308;50.810;0.284;2023-05-15T13:26:38;20.00;99.90
58517;DHT22;44308;50.810;0.284;2023-05-15T13:29:04;19.90;99.90
58517;DHT22;44308;50.810;0.284;2023-05-15T13:31:30;20.30;99.90
58517;DHT22;44308;50.810;0.284;2023-05-15T13:33:56;20.70;99.90
58517;DHT22;44308;50.810;0.284;2023-05-15T13:36:22;20.90;99.90
58517;DHT22;44308;50.810;0.284;2023-05-15T13:38:48;20.60;99.90
58517;DHT22;44308;50.810;0.284;2023-05-15T13:41:13;20.90;99.90
58517;DHT22;44308;50.810;0.284;2023-05-15T13:43:39;20.60;99.90
58517;DHT22;44308;50.810;0.284;2023-05-15T13:46:05;20.60;99.90
58517;DHT22;44308;50.810;0.284;2023-05-15T13:48:31;20.30;99.90
58517;DHT22;44308;50.810;0.284;2023-05-15T13:50:56;20.40;99.90
58517;DHT22;44308;50.810;0.284;2023-05-15T13:53:22;20.40;99.90
58517;DHT22;44308;50.810;0.284;2023-05-15T13:55:47;20.60;99.90
58517;DHT22;44308;50.810;0.284;2023-05-15T13:58:13;20.50;99.90
58517;DHT22;44308;50.810;0.284;2023-05-15T14:00:41;20.40;99.90
58517;DHT22;44308;50.810;0.284;2023-05-15T14:03:09;20.10;99.90
58517;DHT22;44308;50.810;0.284;2023-05-15T14:05:35;20.40;99.90
58517;DHT22;44308;50.810;0.284;2023-05-15T14:08:01;20.90;99.90
58517;DHT22;44308;50.810;0.284;2023-05-15T14:10:27;21.20;99.90
58517;DHT22;44308;50.810;0.284;2023-05-15T14:12:53;20.60;99.90
58517;DHT22;44308;50.810;0.284;2023-05-15T14:15:19;19.90;99.90
58517;DHT22;44308;50.810;0.284;2023-05-15T14:17:44;19.50;99.90
58517;DHT22;44308;50.810;0.284;2023-05-15T14:20:12;19.10;99.90
58517;DHT22;44308;50.810;0.284;2023-05-15T14:22:39;19.40;99.90
58517;DHT22;44308;50.810;0.284;2023-05-15T14:25:05;19.30;99.90
58517;DHT22;44308;50.810;0.284;2023-05-15T14:27:31;19.00;99.90
58517;DHT22;44308;50.810;0.284;2023-05-15T14:29:56;19.00;99.90
58517;DHT22;44308;50.810;0.284;2023-05-15T14:32:23;18.60;99.90
58517;DHT22;44308;50.810;0.284;2023-05-15T14:34:49;18.40;99.90
58517;DHT22;44308;50.810;0.284;2023-05-15T14:37:15;18.50;99.90
58517;DHT22;44308;50.810;0.284;2023-05-15T14:39:40;18.30;99.90
58517;DHT22;44308;50.810;0.284;2023-05-15T14:42:06;18.20;99.90
58517;DHT22;44308;50.810;0.284;2023-05-15T14:44:33;18.10;99.90
58517;DHT22;44308;50.810;0.284;2023-05-15T14:47:09;18.20;99.90
58517;DHT22;44308;50.810;0.284;2023-05-15T14:49:36;18.60;99.90
58517;DHT22;44308;50.810;0.284;2023-05-15T14:52:04;19.10;99.90
58517;DHT22;44308;50.810;0.284;2023-05-15T14:54:30;19.00;99.90
58517;DHT22;44308;50.810;0.284;2023-05-15T14:56:56;19.50;99.90
58517;DHT22;44308;50.810;0.284;2023-05-15T14:59:23;20.00;99.90
58517;DHT22;44308;50.810;0.284;2023-05-15T15:01:48;19.70;99.90
58517;DHT22;44308;50.810;0.284;2023-05-15T15:04:14;19.90;99.90
58517;DHT22;44308;50.810;0.284;2023-05-15T15:06:40;19.60;99.90
58517;DHT22;44308;50.810;0.284;2023-05-15T15:09:06;19.70;99.90
58517;DHT22;44308;50.810;0.284;2023-05-15T15:11:31;19.90;99.90
58517;DHT22;44308;50.810;0.284;2023-05-15T15:13:57;20.00;99.90
58517;DHT22;44308;50.810;0.284;2023-05-15T15:16:23;19.80;99.90
58517;DHT22;44308;50.810;0.284;2023-05-15T15:18:49;20.10;99.90
58517;DHT22;44308;50.810;0.284;2023-05-15T15:21:14;20.40;99.90
58517;DHT22;44308;50.810;0.284;2023-05-15T15:23:41;20.40;99.90
58517;DHT22;44308;50.810;0.284;2023-05-15T15:26:06;20.10;99.90
58517;DHT22;44308;50.810;0.284;2023-05-15T15:28:32;20.00;99.90
58517;DHT22;44308;50.810;0.284;2023-05-15T15:30:59;19.70;99.90
58517;DHT22;44308;50.810;0.284;2023-05-15T15:33:24;19.80;99.90
58517;DHT22;44308;50.810;0.284;2023-05-15T15:35:50;19.70;99.90
58517;DHT22;44308;50.810;0.284;2023-05-15T15:38:16;19.20;99.90
58517;DHT22;44308;50.810;0.284;2023-05-15T15:40:41;18.90;99.90
58517;DHT22;44308;50.810;0.284;2023-05-15T15:43:07;18.60;99.90
58517;DHT22;44308;50.810;0.284;2023-05-15T15:45:33;18.20;99.90
58517;DHT22;44308;50.810;0.284;2023-05-15T15:47:58;18.20;99.90
58517;DHT22;44308;50.810;0.284;2023-05-15T15:50:24;18.40;99.90
58517;DHT22;44308;50.810;0.284;2023-05-15T15:52:50;18.40;99.90
58517;DHT22;44308;50.810;0.284;2023-05-15T15:55:16;18.80;99.90
58517;DHT22;44308;50.810;0.284;2023-05-15T15:57:41;18.70;99.90